Lukojanov, Russia
Current Conditions -  °F | °C
As of 5:00 PM on Saturday 20 Dec 2014 (Local Time) from UWGG Reporting Station
Light Rain Light Rain  
Wind Chill: 30°   Ceiling: 900
Heat Index: 36°   Visibility: 6mi
Dew Point: 34°   Wind: 7mph
Humidity: 93%   Direction: 220°SW
Pressure: 29.38"   Gusts: NA
Location:  55.04°N, 44.49°E
Report Text: UWGG 201400Z 22003MPS 9999 -RA OVC009 02/01 Q0995 NOSIG18290042 RMK QFE739
Loading
Personal Weather Stations






























Interactive Weather Map New forecast layout! Learn more

10-Day Weather Forecast

Advertisements
Track Severe Weather on mobile